createdAt,value
2023-02-14T00:00:47.892Z,82.70
2023-02-14T00:03:50.520Z,82.62
2023-02-14T00:06:53.124Z,82.74
2023-02-14T00:09:55.698Z,83.16
2023-02-14T00:12:58.391Z,83.15
2023-02-14T00:16:01.425Z,83.05
2023-02-14T00:19:04.704Z,83.05
2023-02-14T00:22:07.470Z,82.98
2023-02-14T00:25:11.170Z,82.55
2023-02-14T00:28:13.832Z,83.56
2023-02-14T00:31:17.842Z,83.44
2023-02-14T00:34:20.938Z,84.14
2023-02-14T00:37:24.235Z,83.85
2023-02-14T00:40:26.809Z,83.48
2023-02-14T00:43:29.394Z,83.38
2023-02-14T00:46:33.533Z,82.99
2023-02-14T00:49:36.432Z,83.67
2023-02-14T00:52:39.112Z,83.08
2023-02-14T00:55:41.873Z,83.23
2023-02-14T00:58:44.811Z,83.49
2023-02-14T01:01:48.850Z,83.36
2023-02-14T01:04:51.858Z,83.45
2023-02-14T01:07:54.510Z,83.75
2023-02-14T01:10:57.468Z,83.44
2023-02-14T01:14:00.412Z,83.32
2023-02-14T01:17:04.763Z,83.14
2023-02-14T01:20:09.019Z,83.33
2023-02-14T01:23:11.708Z,83.46
2023-02-14T01:26:14.982Z,83.63
2023-02-14T01:29:17.643Z,83.07
2023-02-14T01:32:21.611Z,83.32
2023-02-14T01:35:25.523Z,83.70
2023-02-14T01:38:28.020Z,83.54
2023-02-14T01:41:33.403Z,83.43
2023-02-14T01:45:02.625Z,83.66
2023-02-14T01:48:06.610Z,83.59
2023-02-14T01:51:09.369Z,83.32
2023-02-14T01:54:12.392Z,83.36
2023-02-14T01:57:17.285Z,83.65
2023-02-14T02:00:38.791Z,83.80
2023-02-14T02:03:45.792Z,83.72
2023-02-14T02:06:52.338Z,84.09
2023-02-14T02:09:57.070Z,84.25
2023-02-14T02:13:02.923Z,83.46
2023-02-14T02:16:27.163Z,83.71
2023-02-14T02:20:11.409Z,84.11
2023-02-14T02:23:40.347Z,84.25
2023-02-14T02:27:21.398Z,84.13
2023-02-14T02:30:44.078Z,83.91
2023-02-14T02:34:22.094Z,83.98
2023-02-14T02:37:33.715Z,83.79
2023-02-14T02:40:48.125Z,83.76
2023-02-14T02:43:55.582Z,83.65
2023-02-14T02:47:05.342Z,83.92
2023-02-14T02:50:37.729Z,83.87
2023-02-14T02:53:46.016Z,83.17
2023-02-14T02:56:53.431Z,83.48
2023-02-14T02:59:57.233Z,83.91
2023-02-14T03:03:23.214Z,83.93
2023-02-14T03:06:25.812Z,84.13
2023-02-14T03:09:56.714Z,83.89
2023-02-14T03:13:27.275Z,83.76
2023-02-14T03:16:35.599Z,83.69
2023-02-14T03:20:01.730Z,84.53
2023-02-14T03:23:10.106Z,83.98
2023-02-14T03:26:17.396Z,84.63
2023-02-14T03:29:26.855Z,84.18
2023-02-14T03:32:35.519Z,83.82
2023-02-14T03:35:41.610Z,83.76
2023-02-14T03:38:46.393Z,84.23
2023-02-14T03:41:53.009Z,84.31
2023-02-14T03:44:56.649Z,84.37
2023-02-14T03:48:03.356Z,84.22
2023-02-14T03:51:08.333Z,84.28
2023-02-14T03:54:13.012Z,84.21
2023-02-14T03:57:20.858Z,84.25
2023-02-14T04:00:23.760Z,84.08
2023-02-14T04:03:27.287Z,84.26
2023-02-14T04:06:30.862Z,84.27
2023-02-14T04:09:33.462Z,84.48
2023-02-14T04:12:38.277Z,84.50
2023-02-14T04:15:41.075Z,84.13
2023-02-14T04:19:01.593Z,84.43
2023-02-14T04:22:05.223Z,84.39
2023-02-14T04:25:08.341Z,84.31
2023-02-14T04:28:12.433Z,84.19
2023-02-14T04:31:16.003Z,84.13
2023-02-14T04:34:18.701Z,84.25
2023-02-14T04:37:21.835Z,83.99
2023-02-14T04:40:24.418Z,84.18
2023-02-14T04:43:28.378Z,84.39
2023-02-14T04:46:30.984Z,84.11
2023-02-14T04:49:34.070Z,83.86
2023-02-14T04:52:36.591Z,83.99
2023-02-14T04:55:39.176Z,84.07
2023-02-14T04:58:43.220Z,84.69
2023-02-14T05:01:45.816Z,84.32
2023-02-14T05:04:49.838Z,84.92
2023-02-14T05:07:52.531Z,85.07
2023-02-14T05:10:55.954Z,85.50
2023-02-14T05:14:00.087Z,84.92
2023-02-14T05:17:02.746Z,85.00
2023-02-14T05:20:06.418Z,84.96
2023-02-14T05:23:13.558Z,84.18
2023-02-14T05:26:16.805Z,84.34
2023-02-14T05:29:21.046Z,84.11
2023-02-14T05:32:23.597Z,84.26
2023-02-14T05:35:26.241Z,84.75
2023-02-14T05:38:28.976Z,84.89
2023-02-14T05:41:31.588Z,84.26
2023-02-14T05:44:35.603Z,84.39
2023-02-14T05:47:38.349Z,84.25
2023-02-14T05:50:42.470Z,84.31
2023-02-14T05:53:45.071Z,84.31
2023-02-14T05:56:47.692Z,83.91
2023-02-14T05:59:51.655Z,83.70
2023-02-14T06:02:54.209Z,84.42
2023-02-14T06:05:56.826Z,84.54
2023-02-14T06:08:59.586Z,84.58
2023-02-14T06:12:02.155Z,84.32
2023-02-14T06:15:07.101Z,84.71
2023-02-14T06:18:09.657Z,84.23
2023-02-14T06:21:12.314Z,84.41
2023-02-14T06:24:15.061Z,84.52
2023-02-14T06:27:18.126Z,84.07
2023-02-14T06:30:22.190Z,84.48
2023-02-14T06:33:24.885Z,84.68
2023-02-14T06:36:27.789Z,84.68
2023-02-14T06:39:30.446Z,84.63
2023-02-14T06:42:33.377Z,84.62
2023-02-14T06:45:37.562Z,84.44
2023-02-14T06:48:40.316Z,84.63
2023-02-14T06:51:42.933Z,84.67
2023-02-14T06:54:45.735Z,84.38
2023-02-14T06:57:48.371Z,84.59
2023-02-14T07:00:52.506Z,84.35
2023-02-14T07:03:55.133Z,84.11
2023-02-14T07:06:57.997Z,83.95
2023-02-14T07:10:00.769Z,84.12
2023-02-14T07:13:03.387Z,84.13
2023-02-14T07:16:07.477Z,84.26
2023-02-14T07:19:10.075Z,83.98
2023-02-14T07:22:12.784Z,84.37
2023-02-14T07:25:15.468Z,83.94
2023-02-14T07:28:18.119Z,83.73
2023-02-14T07:31:23.647Z,83.61
2023-02-14T07:34:27.251Z,83.71
2023-02-14T07:37:30.057Z,83.69
2023-02-14T07:40:32.783Z,83.44
2023-02-14T07:43:35.369Z,83.29
2023-02-14T07:46:39.470Z,83.27
2023-02-14T07:49:42.250Z,82.69
2023-02-14T07:52:45.495Z,83.05
2023-02-14T07:55:50.067Z,82.71
2023-02-14T07:58:52.738Z,82.56
2023-02-14T08:01:56.788Z,82.58
2023-02-14T08:04:59.608Z,82.23
2023-02-14T08:08:02.370Z,82.47
2023-02-14T08:11:05.306Z,81.65
2023-02-14T08:14:07.898Z,81.75
2023-02-14T08:17:13.431Z,81.41
2023-02-14T08:20:16.153Z,81.52
2023-02-14T08:23:19.620Z,81.26
2023-02-14T08:26:22.328Z,81.19
2023-02-14T08:29:25.064Z,80.65
2023-02-14T08:32:29.372Z,80.79
2023-02-14T08:35:32.025Z,80.26
2023-02-14T08:38:34.821Z,79.96
2023-02-14T08:41:37.869Z,79.38
2023-02-14T08:44:40.453Z,79.37
2023-02-14T08:47:44.495Z,79.04
2023-02-14T08:50:47.085Z,78.60
2023-02-14T08:53:51.618Z,78.78
2023-02-14T08:56:54.201Z,78.34
2023-02-14T08:59:56.837Z,77.81
2023-02-14T09:03:01.413Z,77.77
2023-02-14T09:06:04.802Z,76.59
2023-02-14T09:09:07.809Z,76.80
2023-02-14T09:12:11.338Z,75.83
2023-02-14T09:15:14.105Z,74.88
2023-02-14T09:18:18.072Z,73.92
2023-02-14T09:21:22.396Z,74.41
2023-02-14T09:24:24.953Z,73.35
2023-02-14T09:27:27.625Z,72.25
2023-02-14T09:30:30.457Z,71.37
2023-02-14T09:33:34.559Z,70.66
2023-02-14T09:36:54.778Z,70.00
2023-02-14T09:39:57.477Z,69.42
2023-02-14T09:43:05.007Z,68.13
2023-02-14T09:46:09.645Z,67.63
2023-02-14T09:49:15.509Z,67.10
2023-02-14T09:52:28.594Z,66.61
2023-02-14T09:55:37.252Z,66.23
2023-02-14T09:58:45.210Z,65.75
2023-02-14T10:01:50.908Z,65.29
2023-02-14T10:04:59.655Z,64.19
2023-02-14T10:08:09.391Z,63.91
2023-02-14T10:11:16.268Z,63.73
2023-02-14T10:14:21.296Z,62.83
2023-02-14T10:17:33.915Z,63.00
2023-02-14T10:20:41.280Z,63.31
2023-02-14T10:23:46.982Z,62.45
2023-02-14T10:26:51.513Z,62.97
2023-02-14T10:29:54.367Z,62.32
2023-02-14T10:33:03.370Z,61.92
2023-02-14T10:36:15.701Z,61.50
2023-02-14T10:39:29.869Z,61.20
2023-02-14T10:42:39.551Z,60.89
2023-02-14T10:45:46.680Z,60.25
2023-02-14T10:48:55.730Z,60.42
2023-02-14T10:52:04.264Z,59.87
2023-02-14T10:55:20.175Z,59.92
2023-02-14T10:58:35.600Z,59.64
2023-02-14T11:01:38.390Z,59.00
2023-02-14T11:04:42.205Z,58.41
2023-02-14T11:07:46.786Z,58.80
2023-02-14T11:10:49.674Z,58.30
2023-02-14T11:13:52.395Z,57.89
2023-02-14T11:16:55.656Z,57.66
2023-02-14T11:19:59.641Z,56.96
2023-02-14T11:23:03.653Z,56.54
2023-02-14T11:26:10.354Z,57.08
2023-02-14T11:29:14.739Z,55.73
2023-02-14T11:32:22.649Z,55.70
2023-02-14T11:35:33.869Z,55.31
2023-02-14T11:38:40.026Z,55.74
2023-02-14T11:41:50.232Z,54.70
2023-02-14T11:44:58.481Z,54.16
2023-02-14T11:48:22.341Z,53.56
2023-02-14T11:51:33.283Z,53.76
2023-02-14T11:54:38.536Z,53.51
2023-02-14T11:57:41.302Z,53.08
2023-02-14T12:00:52.543Z,53.52
2023-02-14T12:03:56.938Z,53.20
2023-02-14T12:07:14.677Z,52.64
2023-02-14T12:10:22.915Z,52.57
2023-02-14T12:13:26.814Z,51.75
2023-02-14T12:16:32.848Z,51.61
2023-02-14T12:19:40.069Z,51.76
2023-02-14T12:22:46.864Z,51.41
2023-02-14T12:25:52.505Z,51.30
2023-02-14T12:28:59.603Z,51.04
2023-02-14T12:32:06.360Z,51.39
2023-02-14T12:35:16.545Z,50.94
2023-02-14T12:38:26.595Z,50.47
2023-02-14T12:41:39.543Z,50.34
2023-02-14T12:44:47.231Z,50.23
2023-02-14T12:47:55.188Z,50.53
2023-02-14T12:51:01.957Z,49.89
2023-02-14T12:54:18.347Z,49.54
2023-02-14T12:57:34.801Z,49.14
2023-02-14T13:00:45.959Z,48.54
2023-02-14T13:04:01.118Z,48.48
2023-02-14T13:07:09.805Z,48.18
2023-02-14T13:10:22.076Z,47.81
2023-02-14T13:13:34.635Z,41.84
2023-02-14T13:16:41.549Z,27.83
2023-02-14T13:19:48.698Z,20.77
2023-02-14T13:22:51.540Z,18.30
2023-02-14T13:25:59.136Z,16.62
2023-02-14T13:29:05.772Z,16.70
2023-02-14T13:32:13.073Z,15.57
2023-02-14T13:35:16.967Z,15.51
2023-02-14T13:38:20.058Z,14.79
2023-02-14T13:41:23.679Z,14.83
2023-02-14T13:44:48.058Z,14.94
2023-02-14T13:48:03.522Z,14.56
2023-02-14T13:51:07.868Z,14.37
2023-02-14T13:54:21.998Z,13.84
2023-02-14T13:57:31.517Z,15.66
2023-02-14T14:00:41.033Z,15.55
2023-02-14T14:03:58.391Z,16.25
2023-02-14T14:07:18.642Z,15.75
2023-02-14T14:10:45.006Z,15.56
2023-02-14T14:14:02.506Z,15.24
2023-02-14T14:17:25.978Z,15.67
2023-02-14T14:20:48.835Z,15.84
2023-02-14T14:24:04.548Z,14.79
2023-02-14T14:27:08.681Z,14.92
2023-02-14T14:30:19.347Z,14.39
2023-02-14T14:33:27.870Z,13.73
2023-02-14T14:36:30.487Z,13.01
2023-02-14T14:39:34.506Z,13.48
2023-02-14T14:42:38.072Z,16.31
2023-02-14T14:45:42.652Z,23.05
2023-02-14T14:48:49.648Z,29.13
2023-02-14T14:51:52.388Z,33.48
2023-02-14T14:54:55.057Z,37.08
2023-02-14T14:57:59.435Z,38.85
2023-02-14T15:01:02.632Z,40.47
2023-02-14T15:04:18.167Z,42.90
2023-02-14T15:07:25.832Z,43.99
2023-02-14T15:10:30.123Z,45.20
2023-02-14T15:13:50.416Z,45.92
2023-02-14T15:16:57.612Z,45.77
2023-02-14T15:20:04.462Z,42.45
2023-02-14T15:23:07.170Z,35.42
2023-02-14T15:26:12.684Z,33.00
2023-02-14T15:29:22.777Z,37.27
2023-02-14T15:32:26.295Z,31.61
2023-02-14T15:35:32.880Z,34.34
2023-02-14T15:38:37.879Z,34.21
2023-02-14T15:41:44.770Z,37.07
2023-02-14T15:44:47.529Z,38.93
2023-02-14T15:47:53.065Z,42.86
2023-02-14T15:50:59.845Z,46.96
2023-02-14T15:54:04.859Z,48.38
2023-02-14T15:57:08.945Z,50.42
2023-02-14T16:00:17.997Z,51.97
2023-02-14T16:03:22.935Z,52.83
2023-02-14T16:06:36.666Z,53.48
2023-02-14T16:09:39.320Z,54.25
2023-02-14T16:12:42.457Z,54.59
2023-02-14T16:15:58.151Z,54.88
2023-02-14T16:19:01.729Z,56.00
2023-02-14T16:22:07.074Z,56.09
2023-02-14T16:25:10.024Z,57.35
2023-02-14T16:28:12.679Z,57.36
2023-02-14T16:31:16.989Z,58.36
2023-02-14T16:34:20.262Z,60.01
2023-02-14T16:37:26.734Z,59.71
2023-02-14T16:40:30.098Z,60.72
2023-02-14T16:43:32.811Z,60.63
2023-02-14T16:46:37.140Z,61.01
2023-02-14T16:49:39.877Z,62.56
2023-02-14T16:52:44.778Z,63.24
2023-02-14T16:55:47.454Z,63.48
2023-02-14T16:58:50.207Z,64.41
2023-02-14T17:01:53.162Z,64.95
2023-02-14T17:04:55.937Z,64.89
2023-02-14T17:08:01.720Z,65.85
2023-02-14T17:11:04.521Z,66.70
2023-02-14T17:14:07.627Z,66.93
2023-02-14T17:17:10.594Z,67.17
2023-02-14T17:20:14.459Z,67.52
2023-02-14T17:23:20.262Z,67.55
2023-02-14T17:26:23.339Z,67.87
2023-02-14T17:29:26.142Z,68.33
2023-02-14T17:32:28.756Z,69.37
2023-02-14T17:35:31.511Z,70.42
2023-02-14T17:38:35.953Z,70.50
2023-02-14T17:41:38.556Z,71.31
2023-02-14T17:44:41.211Z,71.16
2023-02-14T17:47:45.214Z,71.74
2023-02-14T17:50:47.803Z,72.05
2023-02-14T17:53:52.166Z,72.82
2023-02-14T17:56:54.763Z,73.24
2023-02-14T17:59:58.431Z,73.55
2023-02-14T18:03:01.211Z,74.07
2023-02-14T18:06:04.531Z,74.61
2023-02-14T18:09:09.141Z,74.83
2023-02-14T18:12:14.933Z,75.51
2023-02-14T18:15:18.386Z,75.23
2023-02-14T18:18:21.421Z,75.20
2023-02-14T18:21:25.461Z,75.69
2023-02-14T18:24:29.443Z,76.06
2023-02-14T18:27:32.429Z,76.57
2023-02-14T18:30:35.062Z,76.63
2023-02-14T18:33:38.493Z,77.21
2023-02-14T18:36:42.195Z,77.51
2023-02-14T18:39:46.792Z,77.18
2023-02-14T18:42:49.355Z,77.47
2023-02-14T18:45:51.998Z,77.54
2023-02-14T18:48:56.100Z,78.19
2023-02-14T18:51:59.748Z,77.97
2023-02-14T18:55:03.904Z,78.25
2023-02-14T18:58:07.840Z,78.47
2023-02-14T19:01:12.130Z,78.46
2023-02-14T19:04:16.653Z,79.01
2023-02-14T19:07:19.793Z,79.37
2023-02-14T19:10:24.505Z,79.25
2023-02-14T19:13:29.374Z,79.46
2023-02-14T19:16:34.250Z,79.79
2023-02-14T19:19:36.880Z,79.75
2023-02-14T19:22:39.559Z,80.47
2023-02-14T19:25:43.692Z,80.75
2023-02-14T19:28:48.228Z,80.34
2023-02-14T19:31:56.909Z,80.75
2023-02-14T19:34:59.680Z,80.73
2023-02-14T19:38:03.474Z,81.04
2023-02-14T19:41:07.442Z,81.23
2023-02-14T19:44:13.899Z,80.54
2023-02-14T19:47:29.032Z,80.83
2023-02-14T19:50:36.556Z,80.49
2023-02-14T19:53:39.206Z,81.13
2023-02-14T19:56:45.406Z,80.91
2023-02-14T19:59:48.103Z,81.53
2023-02-14T20:02:51.107Z,81.75
2023-02-14T20:05:53.888Z,82.03
2023-02-14T20:09:06.149Z,82.67
2023-02-14T20:12:26.263Z,82.13
2023-02-14T20:15:33.539Z,82.49
2023-02-14T20:18:37.540Z,82.42
2023-02-14T20:21:42.025Z,82.48
2023-02-14T20:24:44.648Z,82.51
2023-02-14T20:27:51.316Z,82.64
2023-02-14T20:30:54.466Z,82.75
2023-02-14T20:33:57.610Z,83.05
2023-02-14T20:37:01.150Z,82.97
2023-02-14T20:40:04.526Z,83.07
2023-02-14T20:43:08.531Z,83.36
2023-02-14T20:46:12.239Z,83.38
2023-02-14T20:49:16.186Z,83.35
2023-02-14T20:52:19.488Z,83.97
2023-02-14T20:55:22.142Z,83.75
2023-02-14T20:58:26.128Z,84.00
2023-02-14T21:01:29.324Z,83.62
2023-02-14T21:04:32.160Z,83.63
2023-02-14T21:07:34.709Z,83.88
2023-02-14T21:10:44.327Z,83.95
2023-02-14T21:13:48.237Z,84.29
2023-02-14T21:16:50.652Z,84.38
2023-02-14T21:20:17.093Z,83.94
2023-02-14T21:23:20.104Z,84.69
2023-02-14T21:26:22.739Z,84.09
2023-02-14T21:29:27.272Z,84.36
2023-02-14T21:32:30.228Z,84.26
2023-02-14T21:35:32.788Z,84.03
2023-02-14T21:38:35.596Z,84.98
2023-02-14T21:41:38.482Z,85.40
2023-02-14T21:45:00.186Z,84.98
2023-02-14T21:48:20.523Z,84.96
2023-02-14T21:51:23.742Z,84.88
2023-02-14T21:54:29.116Z,84.65
2023-02-14T21:57:34.097Z,84.30
2023-02-14T22:00:48.109Z,85.15
2023-02-14T22:03:52.386Z,84.40
2023-02-14T22:06:57.165Z,84.34
2023-02-14T22:10:00.075Z,84.48
2023-02-14T22:13:02.839Z,85.16
2023-02-14T22:16:12.865Z,85.17
2023-02-14T22:19:17.031Z,85.07
2023-02-14T22:22:19.688Z,84.85
2023-02-14T22:25:23.067Z,84.81
2023-02-14T22:28:25.840Z,85.69
2023-02-14T22:31:39.655Z,85.51
2023-02-14T22:34:42.418Z,85.13
2023-02-14T22:37:45.072Z,85.43
2023-02-14T22:40:47.669Z,85.06
2023-02-14T22:43:50.746Z,85.64
2023-02-14T22:46:54.791Z,85.32
2023-02-14T22:49:59.354Z,85.28
2023-02-14T22:53:03.237Z,84.90
2023-02-14T22:56:13.561Z,84.93
2023-02-14T22:59:18.580Z,85.23
2023-02-14T23:02:22.595Z,85.80
2023-02-14T23:05:25.540Z,85.61
2023-02-14T23:08:28.325Z,85.78
2023-02-14T23:11:32.220Z,85.39
2023-02-14T23:14:52.489Z,85.23
2023-02-14T23:18:14.525Z,85.79
2023-02-14T23:21:35.072Z,85.37
2023-02-14T23:24:37.965Z,85.19
2023-02-14T23:27:42.891Z,85.09
2023-02-14T23:30:45.893Z,85.50
2023-02-14T23:33:52.571Z,85.39
2023-02-14T23:36:55.344Z,84.91
2023-02-14T23:39:58.020Z,84.94
2023-02-14T23:43:00.763Z,85.58
2023-02-14T23:46:03.787Z,85.40
2023-02-14T23:49:09.408Z,85.29
2023-02-14T23:52:13.251Z,85.88
2023-02-14T23:55:15.853Z,85.74
2023-02-14T23:58:18.473Z,85.00
